Time,TemperatureF,DewpointF,PressureIn,WindDirection,WindDirectionDegrees,WindSpeedMPH,WindSpeedGustMPH,Humidity,HourlyPrecipIn,Conditions,Clouds,dailyrainin,SolarRadiationWatts/m^2,SoftwareType,DateUTC
2013-07-25 00:00:00,74.9,70.1,29.71,WNW,292,1.0,9.0,85,0.00,,CLR,0.00,0.00,VWS V14.01,2013-07-25 04:00:00,
2013-07-25 00:30:00,74.2,68.0,29.71,NW,315,4.0,8.0,81,0.00,,CLR,0.00,0.00,VWS V14.01,2013-07-25 04:30:00,
2013-07-25 01:00:00,73.9,67.0,29.71,WNW,292,4.0,9.0,79,0.00,,CLR,0.00,0.00,VWS V14.01,2013-07-25 05:00:00,
2013-07-25 01:30:00,74.4,67.5,29.71,NW,315,2.0,7.0,79,0.00,,CLR,0.00,0.00,VWS V14.01,2013-07-25 05:30:00,
2013-07-25 02:00:00,73.0,67.2,29.72,WNW,292,1.0,6.0,82,0.00,,CLR,0.00,0.00,VWS V14.01,2013-07-25 06:00:00,
2013-07-25 02:30:00,73.0,67.9,29.72,West,270,0.0,4.0,84,0.00,,CLR,0.00,0.00,VWS V14.01,2013-07-25 06:30:00,
2013-07-25 03:00:00,72.3,68.6,29.72,West,270,0.0,4.0,88,0.00,,CLR,0.00,0.00,VWS V14.01,2013-07-25 07:00:00,
2013-07-25 03:30:00,72.7,68.9,29.71,West,270,0.0,4.0,88,0.00,,CLR,0.00,0.00,VWS V14.01,2013-07-25 07:30:00,
2013-07-25 04:00:00,72.7,67.2,29.71,WNW,292,1.0,5.0,83,0.00,,CLR,0.00,0.00,VWS V14.01,2013-07-25 08:00:00,
2013-07-25 04:30:00,72.8,66.6,29.70,NW,315,3.0,7.0,81,0.00,,CLR,0.00,0.00,VWS V14.01,2013-07-25 08:30:00,
2013-07-25 05:00:00,71.8,66.0,29.71,NW,315,1.0,5.0,82,0.00,,CLR,0.00,0.00,VWS V14.01,2013-07-25 09:00:00,
2013-07-25 05:30:00,72.0,66.9,29.72,WNW,292,1.0,8.0,84,0.00,,CLR,0.00,0.00,VWS V14.01,2013-07-25 09:30:00,
2013-07-25 06:00:00,72.5,67.4,29.72,ESE,112,2.0,9.0,84,0.00,,CLR,0.00,0.00,VWS V14.01,2013-07-25 10:00:00,
2013-07-25 06:30:00,73.0,67.9,29.73,ENE,68,2.0,6.0,84,0.00,,CLR,0.00,0.00,VWS V14.01,2013-07-25 10:30:00,
2013-07-25 07:00:00,71.6,67.5,29.73,NW,315,1.0,5.0,87,0.00,,CLR,0.00,0.00,VWS V14.01,2013-07-25 11:00:00,
2013-07-25 07:30:00,70.6,67.5,29.75,West,270,0.0,4.0,90,0.00,,CLR,0.00,0.00,VWS V14.01,2013-07-25 11:30:00,
2013-07-25 08:00:00,70.8,67.7,29.75,West,270,0.0,3.0,90,0.00,,CLR,0.00,12.00,VWS V14.01,2013-07-25 12:00:00,
2013-07-25 08:30:00,72.1,66.7,29.76,WNW,292,1.0,5.0,83,0.00,,CLR,0.00,67.00,VWS V14.01,2013-07-25 12:30:00,
2013-07-25 09:00:00,73.2,67.0,29.77,NW,315,1.0,5.0,81,0.00,,CLR,0.00,148.00,VWS V14.01,2013-07-25 13:00:00,
2013-07-25 09:30:00,75.1,68.5,29.78,NW,315,1.0,5.0,80,0.00,,CLR,0.00,234.00,VWS V14.01,2013-07-25 13:30:00,
2013-07-25 10:00:00,76.8,69.1,29.79,NE,45,1.0,6.0,77,0.00,,CLR,0.00,324.00,VWS V14.01,2013-07-25 14:00:00,
2013-07-25 10:30:00,78.6,68.4,29.79,ENE,68,0.0,3.0,71,0.00,,CLR,0.00,419.00,VWS V14.01,2013-07-25 14:30:00,
2013-07-25 11:00:00,78.1,70.7,29.80,East,90,0.0,8.0,78,0.00,,CLR,0.00,510.00,VWS V14.01,2013-07-25 15:00:00,
2013-07-25 11:30:00,79.0,69.2,29.80,East,90,4.0,11.0,72,0.00,,CLR,0.00,567.00,VWS V14.01,2013-07-25 15:30:00,
2013-07-25 12:00:00,79.2,68.6,29.80,ESE,112,6.0,13.0,70,0.00,,CLR,0.00,710.00,VWS V14.01,2013-07-25 16:00:00,
2013-07-25 12:30:00,80.3,68.8,29.81,ESE,112,4.0,12.0,68,0.00,,CLR,0.00,777.00,VWS V14.01,2013-07-25 16:30:00,
2013-07-25 13:00:00,81.2,68.8,29.81,ESE,112,3.0,10.0,66,0.00,,CLR,0.00,785.00,VWS V14.01,2013-07-25 17:00:00,
2013-07-25 13:30:00,81.4,68.5,29.81,East,90,1.0,6.0,65,0.00,,CLR,0.00,884.00,VWS V14.01,2013-07-25 17:30:00,
2013-07-25 14:00:00,83.0,68.2,29.81,ESE,112,2.0,7.0,61,0.00,,CLR,0.00,974.00,VWS V14.01,2013-07-25 18:00:00,
2013-07-25 14:30:00,85.5,68.5,29.81,SE,135,1.0,4.0,57,0.00,,CLR,0.00,971.00,VWS V14.01,2013-07-25 18:30:00,
2013-07-25 15:00:00,83.4,68.6,29.81,East,90,1.0,5.0,61,0.00,,CLR,0.00,946.00,VWS V14.01,2013-07-25 19:00:00,
2013-07-25 15:30:00,85.1,68.2,29.80,SE,135,1.0,6.0,57,0.00,,CLR,0.00,600.00,VWS V14.01,2013-07-25 19:30:00,
2013-07-25 16:00:00,85.7,69.2,29.79,SE,135,1.0,5.0,58,0.00,,CLR,0.00,860.00,VWS V14.01,2013-07-25 20:00:00,
2013-07-25 16:30:00,84.9,69.0,29.79,SE,135,1.0,7.0,59,0.00,,CLR,0.00,840.00,VWS V14.01,2013-07-25 20:30:00,
2013-07-25 17:00:00,85.7,68.2,29.79,WNW,292,1.0,7.0,56,0.00,,CLR,0.00,839.00,VWS V14.01,2013-07-25 21:00:00,
2013-07-25 17:30:00,86.3,68.2,29.79,West,270,1.0,7.0,55,0.00,,CLR,0.00,792.00,VWS V14.01,2013-07-25 21:30:00,
2013-07-25 18:00:00,87.0,69.9,29.79,West,270,1.0,6.0,57,0.00,,CLR,0.00,712.00,VWS V14.01,2013-07-25 22:00:00,
2013-07-25 18:30:00,85.7,71.2,29.78,SSE,158,0.0,3.0,62,0.00,,CLR,0.00,233.00,VWS V14.01,2013-07-25 22:30:00,
2013-07-25 19:00:00,84.3,71.3,29.79,SE,135,0.0,2.0,65,0.00,,CLR,0.00,137.00,VWS V14.01,2013-07-25 23:00:00,
2013-07-25 19:30:00,84.0,71.4,29.79,ESE,112,0.0,1.0,66,0.00,,CLR,0.00,167.00,VWS V14.01,2013-07-25 23:30:00,
2013-07-25 20:00:00,83.8,72.6,29.80,East,90,0.0,1.0,69,0.00,,CLR,0.00,97.00,VWS V14.01,2013-07-26 00:00:00,
2013-07-25 20:30:00,80.5,72.2,29.82,WNW,292,4.0,17.0,76,0.00,,CLR,0.00,77.00,VWS V14.01,2013-07-26 00:30:00,
2013-07-25 21:00:00,76.3,68.6,29.86,East,90,10.0,18.0,77,0.00,,CLR,0.00,29.00,VWS V14.01,2013-07-26 01:00:00,
2013-07-25 21:12:00,75.6,67.1,29.84,East,90,4.0,14.0,75,0.00,,CLR,0.00,23.00,VWS V14.01,2013-07-26 01:12:00,
2013-07-25 21:17:00,74.2,69.1,29.86,ENE,66,9.0,10.0,84,0.00,,CLR,0.00,0.00,VWS V14.01,2013-07-26 01:17:00,
2013-07-25 21:22:00,73.7,68.6,29.86,ENE,71,9.0,12.0,84,0.00,,CLR,0.00,0.00,VWS V14.01,2013-07-26 01:22:00,
2013-07-25 21:27:00,73.5,68.4,29.86,ENE,64,7.0,12.0,84,0.00,,CLR,0.00,0.00,VWS V14.01,2013-07-26 01:27:00,
2013-07-25 21:30:00,75.6,67.1,29.84,East,90,4.0,14.0,75,0.00,,OVC065,0.00,23.00,VWS V14.01,2013-07-26 01:30:00,
2013-07-25 21:32:00,73.3,68.2,29.88,North,5,6.0,6.0,84,0.00,,CLR,0.00,0.00,VWS V14.01,2013-07-26 01:32:00,
2013-07-25 21:37:00,73.5,68.7,29.88,North,5,7.0,9.0,85,0.00,,CLR,0.00,0.00,VWS V14.01,2013-07-26 01:37:00,
2013-07-25 21:42:00,74.0,69.6,29.88,North,9,5.0,9.0,86,0.00,,CLR,0.00,0.00,VWS V14.01,2013-07-26 01:42:00,
2013-07-25 21:47:00,74.4,69.6,29.87,NE,39,5.0,10.0,85,0.00,,CLR,0.00,0.00,VWS V14.01,2013-07-26 01:47:00,
2013-07-25 21:52:00,74.4,68.2,29.87,NE,56,4.0,10.0,81,0.00,,CLR,0.00,0.00,VWS V14.01,2013-07-26 01:52:00,
2013-07-25 21:57:00,74.4,66.7,29.87,NE,50,4.0,10.0,77,0.00,,CLR,0.00,0.00,VWS V14.01,2013-07-26 01:57:00,
2013-07-25 22:00:00,76.3,68.6,29.86,East,90,10.0,18.0,77,0.00,,CLR,0.00,29.00,VWS V14.01,2013-07-26 02:00:00,
2013-07-25 22:02:00,74.6,67.7,29.87,NE,36,6.0,6.0,79,0.00,,BKN100,0.00,0.00,VWS V14.01,2013-07-26 02:02:00,
2013-07-25 22:07:00,74.6,66.2,29.87,East,80,3.0,7.0,75,0.00,,BKN100,0.00,0.00,VWS V14.01,2013-07-26 02:07:00,
2013-07-25 22:12:00,74.6,66.9,29.87,ENE,67,4.0,7.0,77,0.00,,BKN100,0.00,0.00,VWS V14.01,2013-07-26 02:12:00,
2013-07-25 22:17:00,74.7,68.1,29.87,NNE,26,3.0,10.0,80,0.00,,BKN100,0.00,0.00,VWS V14.01,2013-07-26 02:17:00,
2013-07-25 22:22:00,74.9,68.3,29.87,North,5,7.0,10.0,80,0.00,,BKN100,0.00,0.00,VWS V14.01,2013-07-26 02:22:00,
2013-07-25 22:27:00,74.6,67.7,29.87,NE,37,6.0,10.0,79,0.00,,BKN100,0.00,0.00,VWS V14.01,2013-07-26 02:27:00,
2013-07-25 22:30:00,73.3,68.2,29.88,NNE,24,3.0,12.0,84,0.00,,OVC065,0.00,0.00,VWS V14.01,2013-07-26 02:30:00,
2013-07-25 22:32:00,74.7,68.5,29.87,NNE,22,6.0,7.0,81,0.00,,BKN100,0.00,0.00,VWS V14.01,2013-07-26 02:32:00,
2013-07-25 22:37:00,74.7,68.1,29.87,NNE,26,4.0,9.0,80,0.00,,BKN100,0.00,0.00,VWS V14.01,2013-07-26 02:37:00,
2013-07-25 22:42:00,74.9,69.4,29.87,NNW,346,5.0,9.0,83,0.00,,BKN100,0.00,0.00,VWS V14.01,2013-07-26 02:42:00,
2013-07-25 22:47:00,74.7,67.4,29.87,WNW,284,6.0,10.0,78,0.00,,BKN100,0.00,0.00,VWS V14.01,2013-07-26 02:47:00,
2013-07-25 22:52:00,74.2,68.4,29.87,NW,304,5.0,10.0,82,0.00,,BKN100,0.00,0.00,VWS V14.01,2013-07-26 02:52:00,
2013-07-25 22:57:00,73.9,66.6,29.87,WNW,298,4.0,10.0,78,0.00,,BKN100,0.00,0.00,VWS V14.01,2013-07-26 02:57:00,
2013-07-25 23:00:00,74.4,67.5,29.87,NE,36,3.0,10.0,79,0.00,,OVC065,0.00,0.00,VWS V14.01,2013-07-26 03:00:00,
2013-07-25 23:02:00,73.5,67.0,29.87,West,259,0.0,4.0,80,0.00,,CLR,0.00,0.00,VWS V14.01,2013-07-26 03:02:00,
2013-07-25 23:07:00,73.2,66.3,29.87,WNW,292,3.0,6.0,79,0.00,,CLR,0.00,0.00,VWS V14.01,2013-07-26 03:07:00,
2013-07-25 23:12:00,73.2,67.0,29.87,North,355,1.0,6.0,81,0.00,,CLR,0.00,0.00,VWS V14.01,2013-07-26 03:12:00,
2013-07-25 23:17:00,73.2,67.0,29.87,NW,311,3.0,6.0,81,0.00,,CLR,0.00,0.00,VWS V14.01,2013-07-26 03:17:00,
2013-07-25 23:22:00,73.3,67.1,29.87,WNW,298,1.0,6.0,81,0.00,,CLR,0.00,0.00,VWS V14.01,2013-07-26 03:22:00,
2013-07-25 23:27:00,73.2,67.0,29.87,West,277,0.0,6.0,81,0.00,,CLR,0.00,0.00,VWS V14.01,2013-07-26 03:27:00,
2013-07-25 23:30:00,74.7,68.5,29.87,NNE,18,5.0,10.0,81,0.00,,OVC065,0.00,0.00,VWS V14.01,2013-07-26 03:30:00,
2013-07-25 23:32:00,73.0,66.8,29.87,West,278,3.0,4.0,81,0.00,,CLR,0.00,0.00,VWS V14.01,2013-07-26 03:32:00,
2013-07-25 23:37:00,72.8,67.0,29.87,NW,306,3.0,4.0,82,0.00,,CLR,0.00,0.00,VWS V14.01,2013-07-26 03:37:00,
2013-07-25 23:42:00,72.7,66.9,29.87,NW,308,0.0,5.0,82,0.00,,CLR,0.00,0.00,VWS V14.01,2013-07-26 03:42:00,
2013-07-25 23:47:00,72.7,67.2,29.88,NW,308,2.0,5.0,83,0.00,,CLR,0.00,0.00,VWS V14.01,2013-07-26 03:47:00,
2013-07-25 23:52:00,72.7,67.6,29.88,NW,308,5.0,5.0,84,0.00,,CLR,0.00,0.00,VWS V14.01,2013-07-26 03:52:00,
2013-07-25 23:57:00,72.7,67.6,29.88,NW,309,4.0,6.0,84,0.00,,CLR,0.00,0.00,VWS V14.01,2013-07-26 03:57:00,